Latest Coastal Weather Observations for Yeppoon

IDQ60701

Issued at 11:15 pm EST Thursday 28 August 2014 (issued every 10 minutes, with the page automatically refreshed every 10 minutes)

About coastal observations | Map of coastal stations | Coastal observations for QLD | Marine services | Other Formats
Station Details ID: 033294 Name: YEPPOON THE ESPLANADE Lat: -23.14 Lon: 150.75 Height: 5.5 m
Data from the previous 72 hours. | See also: Recent months at Yeppoon
Date/Time
EST
Temp

°C
Wind Pressure Rain
since 9am
mm
Weather Cloud Vis
km
Sea
Height
m
Swell
Dir
 
Speed
knots
Gust
knots
hPa Trend Height
m
Period
s
Dir
28/11:00pm 14.2 W 5 7 1020.2 - 0.0 - - - - - - -
28/10:30pm 14.8 W 6 6 1020.1 - 0.0 - - - - - - -
28/10:00pm 15.2 WSW 3 4 1020.1 - 0.0 - - - - - - -
28/09:30pm 15.4 SW 2 3 1020.2 - 0.0 - - - - - - -
28/09:00pm 15.9 CALM 0 0 1020.1 - 0.0 - - - - - - -
28/08:30pm 16.3 N 2 3 1019.9 - 0.0 - - - - - - -
28/08:00pm 18.8 N 5 6 1019.5 - 0.0 - - - - - - -
28/07:30pm 18.9 N 6 7 1019.1 - 0.0 - - - - - - -
28/07:00pm 19.6 NNE 6 7 1018.6 - 0.0 - - - - - - -
28/06:30pm 19.7 NNE 6 8 1018.1 - 0.0 - - - - - - -
28/06:00pm 19.7 NNE 8 10 1017.6 - 0.0 - - - - - - -
28/05:30pm 19.8 NNE 8 9 1017.1 - 0.0 - - - - - - -
28/05:00pm 20.1 NNE 8 10 1017.0 - 0.0 - - - - - - -
28/04:30pm 20.3 NNE 10 12 1016.7 - 0.0 - - - - - - -
28/04:00pm 20.5 NNE 9 11 1016.3 - 0.0 - - - - - - -
28/03:30pm 21.0 NNE 8 10 1016.0 - 0.0 - - - - - - -
28/03:00pm 21.6 NE 7 9 1016.0 - 0.0 - - - - - - -
28/02:30pm 21.9 N 8 9 1016.2 - 0.0 - - - - - - -
28/02:00pm 21.8 NNE 10 11 1016.3 - 0.0 - - - - - - -
28/01:30pm 22.6 ENE 6 9 1016.3 - 0.0 - - - - - - -
28/01:00pm 22.2 ENE 7 11 1016.4 - 0.0 - - - - - - -
28/12:30pm 22.0 E 8 13 1016.8 - 0.0 - - - - - - -
28/12:00pm 21.6 E 7 10 1017.3 - 0.0 - - - - - - -
28/11:30am 21.4 SSE 8 17 1017.9 - 0.0 - - - - - - -
28/11:00am 21.2 S 8 12 1018.1 - 0.0 - - - - - - -
28/10:30am 20.5 S 11 18 1018.2 - 0.0 - - - - - - -
28/10:00am 20.0 SW 9 14 1018.4 - 0.0 - - - - - - -
28/09:30am 19.3 SW 9 13 1018.7 - 0.0 - - - - - - -
28/09:00am 17.9 SW 7 11 1018.6 - 0.0 - - - - - - -
28/08:30am 16.4 WSW 7 12 1018.5 - 0.0 - - - - - - -
28/08:00am 14.9 WSW 9 13 1018.6 - 0.0 - - - - - - -
28/07:30am 13.6 WSW 8 11 1018.5 - 0.0 - - - - - - -
28/07:00am 11.8 W 9 11 1018.3 - 0.0 - - - - - - -
28/06:30am 11.2 WSW 8 10 1018.3 - 0.0 - - - - - - -
28/06:00am 11.0 W 7 9 1018.2 - 0.0 - - - - - - -
28/05:30am 10.5 W 7 9 1017.8 - 0.0 - - - - - - -
28/05:00am 9.4 W 2 5 1017.6 - 0.0 - - - - - - -
28/04:30am 8.9 W 8 10 1017.2 - 0.0 - - - - - - -
28/04:00am 9.2 W 4 8 1017.2 - 0.0 - - - - - - -
28/03:30am 9.6 W 5 7 1017.2 - 0.0 - - - - - - -
28/03:00am 10.3 W 3 4 1017.4 - 0.0 - - - - - - -
28/02:30am 11.4 W 4 5 1017.5 - 0.0 - - - - - - -
28/02:00am 12.2 W 5 6 1017.7 - 0.0 - - - - - - -
28/01:30am 12.3 W 4 7 1017.8 - 0.0 - - - - - - -
28/01:00am 13.9 W 5 7 1017.9 - 0.0 - - - - - - -
28/12:30am 15.1 SW 5 8 1017.7 - 0.0 - - - - - - -
28/12:00am 13.7 SW 5 7 1017.7 - 0.0 - - - - - - -
 
Date/Time
EST
Temp

°C
Wind Pressure Rain
since 9am
mm
Weather Cloud Vis
km
Sea
Height
m
Swell
Dir
 
Speed
knots
Gust
knots
hPa Trend Height
m
Period
s
Dir
27/11:30pm 12.4 W 6 7 1017.5 - 0.0 - - - - - - -
27/11:00pm 13.3 W 6 7 1017.4 - 0.0 - - - - - - -
27/10:30pm 13.7 W 6 7 1017.4 - 0.0 - - - - - - -
27/10:00pm 13.9 W 7 8 1017.3 - 0.0 - - - - - - -
27/09:30pm 13.8 W 6 7 1017.2 - 0.0 - - - - - - -
27/09:00pm 13.8 W 6 7 1017.0 - 0.0 - - - - - - -
27/08:30pm 14.3 W 5 7 1016.7 - 0.0 - - - - - - -
27/08:00pm 14.6 W 6 7 1016.4 - 0.0 - - - - - - -
27/07:30pm 15.1 W 3 5 1016.1 - 0.0 - - - - - - -
27/07:00pm 17.3 W 4 5 1015.6 - 0.0 - - - - - - -
27/06:30pm 18.0 W 4 5 1015.2 - 0.0 - - - - - - -
27/06:00pm 20.0 WSW 5 5 1014.7 - 0.0 - - - - - - -
27/05:30pm 21.8 SW 5 7 1014.4 - 0.0 - - - - - - -
27/05:00pm 23.2 SW 7 12 1014.0 - 0.0 - - - - - - -
27/04:30pm 23.8 WSW 8 15 1013.7 - 0.0 - - - - - - -
27/04:00pm 24.0 SW 7 11 1013.4 - 0.0 - - - - - - -
27/03:30pm 22.5 N 5 9 1013.5 - 0.0 - - - - - - -
27/03:00pm 22.7 NE 8 9 1013.4 - 0.0 - - - - - - -
27/02:30pm 24.8 NNW 6 12 1013.5 - 0.0 - - - - - - -
27/02:00pm 25.1 SSW 8 12 1013.8 - 0.0 - - - - - - -
27/01:30pm 24.8 SW 7 13 1014.1 - 0.0 - - - - - - -
27/01:00pm 24.4 SSW 7 12 1014.3 - 0.0 - - - - - - -
27/12:30pm 24.5 W 6 11 1014.7 - 0.0 - - - - - - -
27/12:00pm 23.7 W 7 12 1015.2 - 0.0 - - - - - - -
27/11:30am 22.8 WSW 7 11 1015.8 - 0.0 - - - - - - -
27/11:00am 21.9 WSW 7 13 1016.1 - 0.0 - - - - - - -
27/10:30am 21.2 W 6 11 1016.6 - 0.0 - - - - - - -
27/10:00am 19.8 W 7 9 1016.9 - 0.0 - - - - - - -
27/09:30am 17.8 W 7 9 1017.3 - 0.0 - - - - - - -
27/09:00am 16.7 W 9 13 1017.3 - 0.0 - - - - - - -
27/08:30am 15.9 W 7 9 1017.2 - 0.0 - - - - - - -
27/08:00am 14.5 W 7 9 1017.0 - 0.0 - - - - - - -
27/07:30am 13.5 W 9 13 1016.7 - 0.0 - - - - - - -
27/07:00am 13.0 W 7 9 1016.4 - 0.0 - - - - - - -
27/06:30am 13.0 WSW 6 8 1016.2 - 0.0 - - - - - - -
27/06:00am 13.7 W 8 9 1015.8 - 0.0 - - - - - - -
27/05:30am 14.2 W 6 8 1015.6 - 0.0 - - - - - - -
27/05:00am 13.2 WSW 5 6 1015.3 - 0.0 - - - - - - -
27/04:30am 12.8 WSW 5 6 1015.2 - 0.0 - - - - - - -
27/04:00am 12.6 W 5 8 1015.3 - 0.0 - - - - - - -
27/03:30am 12.1 WNW 6 8 1015.6 - 0.0 - - - - - - -
27/03:00am 12.4 W 7 9 1015.8 - 0.0 - - - - - - -
27/02:30am 12.4 W 7 8 1015.5 - 0.0 - - - - - - -
27/02:00am 12.5 W 5 6 1015.7 - 0.0 - - - - - - -
27/01:30am 12.5 W 5 8 1015.8 - 0.0 - - - - - - -
27/01:00am 12.7 W 6 7 1016.1 - 0.0 - - - - - - -
27/12:30am 13.4 WSW 5 7 1016.4 - 0.0 - - - - - - -
27/12:00am 13.8 W 6 7 1016.6 - 0.0 - - - - - - -
 
Date/Time
EST
Temp

°C
Wind Pressure Rain
since 9am
mm
Weather Cloud Vis
km
Sea
Height
m
Swell
Dir
 
Speed
knots
Gust
knots
hPa Trend Height
m
Period
s
Dir
26/11:30pm 14.0 W 6 7 1016.7 - 0.0 - - - - - - -
26/11:00pm 13.8 W 5 7 1016.8 - 0.0 - - - - - - -
26/10:30pm 14.6 SW 3 4 1016.6 - 0.0 - - - - - - -
26/10:00pm 15.1 S 1 3 1016.6 - 0.0 - - - - - - -
26/09:30pm 15.6 SW 3 4 1016.6 - 0.0 - - - - - - -
26/09:00pm 16.7 W 3 4 1016.6 - 0.0 - - - - - - -
26/08:30pm 17.6 WSW 1 3 1016.6 - 0.0 - - - - - - -
26/08:00pm 18.4 N 5 9 1016.4 - 0.0 - - - - - - -
26/07:30pm 18.7 N 6 9 1016.0 - 0.0 - - - - - - -
26/07:00pm 18.8 N 9 13 1015.6 - 0.0 - - - - - - -
26/06:30pm 18.9 N 9 12 1015.3 - 0.0 - - - - - - -
26/06:00pm 19.4 N 12 13 1015.0 - 0.0 - - - - - - -
26/05:30pm 19.9 N 14 16 1014.6 - 0.0 - - - - - - -
26/05:00pm 20.1 NNE 12 14 1014.5 - 0.0 - - - - - - -
26/04:30pm 20.3 NNE 11 13 1014.3 - 0.0 - - - - - - -
26/04:00pm 20.5 NNE 11 13 1014.3 - 0.0 - - - - - - -
26/03:30pm 20.7 NNE 11 13 1014.3 - 0.0 - - - - - - -
26/03:00pm 20.7 NNE 11 12 1014.4 - 0.0 - - - - - - -
26/02:30pm 21.8 NE 6 9 1014.7 - 0.0 - - - - - - -
26/02:00pm 21.9 NE 6 8 1015.1 - 0.0 - - - - - - -
26/01:30pm 22.5 NE 8 9 1015.5 - 0.0 - - - - - - -
26/01:00pm 22.1 NE 6 8 1015.8 - 0.0 - - - - - - -
26/12:30pm 21.5 NE 6 8 1016.4 - 0.0 - - - - - - -
26/12:00pm 21.7 NE 7 9 1016.9 - 0.0 - - - - - - -
26/11:30am 21.3 ENE 6 8 1017.6 - 0.0 - - - - - - -
26/11:00am 21.2 NE 6 7 1018.1 - 0.0 - - - - - - -
26/10:30am 21.2 ENE 5 7 1018.4 - 0.0 - - - - - - -
26/10:00am 21.0 E 6 8 1018.7 - 0.0 - - - - - - -
26/09:30am 20.5 E 6 8 1018.8 - 0.0 - - - - - - -
26/09:00am 19.9 E 5 8 1018.8 - 0.0 - - - - - - -
26/08:30am 17.7 WNW 4 6 1018.8 - 0.0 - - - - - - -
26/08:00am 15.2 W 5 8 1018.6 - 0.0 - - - - - - -
26/07:30am 13.0 W 5 7 1018.4 - 0.0 - - - - - - -
26/07:00am 11.5 W 5 7 1018.1 - 0.0 - - - - - - -
26/06:30am 11.1 W 7 8 1017.7 - 0.0 - - - - - - -
26/06:00am 11.7 W 6 7 1017.5 - 0.0 - - - - - - -
26/05:30am 11.7 W 7 9 1017.2 - 0.0 - - - - - - -
26/05:00am 12.5 W 5 7 1017.0 - 0.0 - - - - - - -
26/04:30am 12.9 W 7 9 1016.9 - 0.0 - - - - - - -
26/04:00am 13.6 W 6 9 1017.0 - 0.0 - - - - - - -
26/03:30am 12.5 W 6 9 1017.1 - 0.0 - - - - - - -
26/03:00am 13.9 W 5 7 1017.2 - 0.0 - - - - - - -
26/02:30am 13.2 W 7 9 1017.4 - 0.0 - - - - - - -
26/02:00am 13.4 W 6 7 1017.6 - 0.0 - - - - - - -
26/01:30am 13.8 W 6 7 1017.9 - 0.0 - - - - - - -
26/01:00am 13.9 W 6 8 1018.2 - 0.0 - - - - - - -
26/12:30am 14.5 W 5 6 1018.4 - 0.0 - - - - - - -
26/12:00am 14.8 W 5 7 1018.6 - 0.0 - - - - - - -
 
Date/Time
EST
Temp

°C
Wind Pressure Rain
since 9am
mm
Weather Cloud Vis
km
Sea
Height
m
Swell
Dir
 
Speed
knots
Gust
knots
hPa Trend Height
m
Period
s
Dir
25/11:30pm 14.6 W 7 9 1018.7 - 0.0 - - - - - - -

Other Formats:

Comma delimited format used in spreadsheet applications
http://www.bom.gov.au/fwo/IDQ60701/IDQ60701.94373.axf

JavaScript Object Notation format (JSON) in row-major order
http://www.bom.gov.au/fwo/IDQ60701/IDQ60701.94373.json